sensor_id;sensor_type;location;lat;lon;timestamp;P1;durP1;ratioP1;P2;durP2;ratioP2
14611;SDS011;7392;52.078;11.650;2023-07-29T00:00:18;1.10;;;1.00;;
14611;SDS011;7392;52.078;11.650;2023-07-29T00:02:46;0.97;;;0.97;;
14611;SDS011;7392;52.078;11.650;2023-07-29T00:05:13;1.17;;;1.07;;
14611;SDS011;7392;52.078;11.650;2023-07-29T00:07:43;1.30;;;1.20;;
14611;SDS011;7392;52.078;11.650;2023-07-29T00:10:10;1.27;;;1.20;;
14611;SDS011;7392;52.078;11.650;2023-07-29T00:12:38;1.40;;;1.30;;
14611;SDS011;7392;52.078;11.650;2023-07-29T00:15:06;1.50;;;1.40;;
14611;SDS011;7392;52.078;11.650;2023-07-29T00:17:35;1.30;;;1.20;;
14611;SDS011;7392;52.078;11.650;2023-07-29T00:20:03;1.60;;;1.50;;
14611;SDS011;7392;52.078;11.650;2023-07-29T00:22:34;1.50;;;1.40;;
14611;SDS011;7392;52.078;11.650;2023-07-29T00:25:03;1.40;;;1.30;;
14611;SDS011;7392;52.078;11.650;2023-07-29T00:27:32;1.40;;;1.30;;
14611;SDS011;7392;52.078;11.650;2023-07-29T00:29:59;1.80;;;1.70;;
14611;SDS011;7392;52.078;11.650;2023-07-29T00:32:29;1.67;;;1.57;;
14611;SDS011;7392;52.078;11.650;2023-07-29T00:34:56;1.40;;;1.30;;
14611;SDS011;7392;52.078;11.650;2023-07-29T00:37:27;1.30;;;1.20;;
14611;SDS011;7392;52.078;11.650;2023-07-29T00:39:55;1.20;;;1.10;;
14611;SDS011;7392;52.078;11.650;2023-07-29T00:42:24;1.37;;;1.27;;
14611;SDS011;7392;52.078;11.650;2023-07-29T00:44:52;1.40;;;1.30;;
14611;SDS011;7392;52.078;11.650;2023-07-29T00:47:20;1.20;;;1.10;;
14611;SDS011;7392;52.078;11.650;2023-07-29T00:49:50;1.30;;;1.20;;
14611;SDS011;7392;52.078;11.650;2023-07-29T00:52:18;1.40;;;1.30;;
14611;SDS011;7392;52.078;11.650;2023-07-29T00:54:46;1.40;;;1.30;;
14611;SDS011;7392;52.078;11.650;2023-07-29T00:57:14;1.33;;;1.23;;
14611;SDS011;7392;52.078;11.650;2023-07-29T00:59:45;1.27;;;1.17;;
14611;SDS011;7392;52.078;11.650;2023-07-29T01:02:13;1.53;;;1.40;;
14611;SDS011;7392;52.078;11.650;2023-07-29T01:04:41;1.50;;;1.40;;
14611;SDS011;7392;52.078;11.650;2023-07-29T01:07:12;1.90;;;1.80;;
14611;SDS011;7392;52.078;11.650;2023-07-29T01:09:48;2.07;;;1.97;;
14611;SDS011;7392;52.078;11.650;2023-07-29T01:12:30;1.60;;;1.50;;
14611;SDS011;7392;52.078;11.650;2023-07-29T01:15:11;1.40;;;1.30;;
14611;SDS011;7392;52.078;11.650;2023-07-29T01:17:48;1.50;;;1.40;;
14611;SDS011;7392;52.078;11.650;2023-07-29T01:20:20;1.70;;;1.60;;
14611;SDS011;7392;52.078;11.650;2023-07-29T01:22:49;1.30;;;1.20;;
14611;SDS011;7392;52.078;11.650;2023-07-29T01:25:19;1.27;;;1.17;;
14611;SDS011;7392;52.078;11.650;2023-07-29T01:27:48;1.37;;;1.27;;
14611;SDS011;7392;52.078;11.650;2023-07-29T01:30:18;1.30;;;1.20;;
14611;SDS011;7392;52.078;11.650;2023-07-29T01:32:49;1.47;;;1.37;;
14611;SDS011;7392;52.078;11.650;2023-07-29T01:35:23;1.57;;;1.47;;
14611;SDS011;7392;52.078;11.650;2023-07-29T01:37:55;1.60;;;1.50;;
14611;SDS011;7392;52.078;11.650;2023-07-29T01:40:28;1.50;;;1.40;;
14611;SDS011;7392;52.078;11.650;2023-07-29T01:42:56;1.50;;;1.40;;
14611;SDS011;7392;52.078;11.650;2023-07-29T01:45:24;1.80;;;1.70;;
14611;SDS011;7392;52.078;11.650;2023-07-29T01:47:52;1.80;;;1.70;;
14611;SDS011;7392;52.078;11.650;2023-07-29T01:50:20;1.77;;;1.67;;
14611;SDS011;7392;52.078;11.650;2023-07-29T01:52:48;2.17;;;1.97;;
14611;SDS011;7392;52.078;11.650;2023-07-29T01:55:15;2.23;;;2.07;;
14611;SDS011;7392;52.078;11.650;2023-07-29T01:57:45;2.00;;;1.90;;
14611;SDS011;7392;52.078;11.650;2023-07-29T02:00:13;1.90;;;1.80;;
14611;SDS011;7392;52.078;11.650;2023-07-29T02:02:41;1.60;;;1.50;;
14611;SDS011;7392;52.078;11.650;2023-07-29T02:05:09;1.83;;;1.73;;
14611;SDS011;7392;52.078;11.650;2023-07-29T02:07:36;1.70;;;1.60;;
14611;SDS011;7392;52.078;11.650;2023-07-29T02:10:05;1.70;;;1.60;;
14611;SDS011;7392;52.078;11.650;2023-07-29T02:12:33;1.30;;;1.20;;
14611;SDS011;7392;52.078;11.650;2023-07-29T02:15:03;1.53;;;1.43;;
14611;SDS011;7392;52.078;11.650;2023-07-29T02:17:31;1.50;;;1.40;;
14611;SDS011;7392;52.078;11.650;2023-07-29T02:19:59;1.50;;;1.40;;
14611;SDS011;7392;52.078;11.650;2023-07-29T02:22:27;1.30;;;1.20;;
14611;SDS011;7392;52.078;11.650;2023-07-29T02:24:55;1.50;;;1.40;;
14611;SDS011;7392;52.078;11.650;2023-07-29T02:27:23;1.57;;;1.47;;
14611;SDS011;7392;52.078;11.650;2023-07-29T02:29:52;1.50;;;1.40;;
14611;SDS011;7392;52.078;11.650;2023-07-29T02:32:21;1.63;;;1.53;;
14611;SDS011;7392;52.078;11.650;2023-07-29T02:34:50;1.57;;;1.47;;
14611;SDS011;7392;52.078;11.650;2023-07-29T02:37:18;1.67;;;1.57;;
14611;SDS011;7392;52.078;11.650;2023-07-29T02:39:46;1.50;;;1.40;;
14611;SDS011;7392;52.078;11.650;2023-07-29T02:42:14;1.50;;;1.40;;
14611;SDS011;7392;52.078;11.650;2023-07-29T02:44:41;1.37;;;1.27;;
14611;SDS011;7392;52.078;11.650;2023-07-29T02:47:09;1.60;;;1.50;;
14611;SDS011;7392;52.078;11.650;2023-07-29T02:49:38;1.50;;;1.40;;
14611;SDS011;7392;52.078;11.650;2023-07-29T02:52:06;1.37;;;1.27;;
14611;SDS011;7392;52.078;11.650;2023-07-29T02:54:34;1.60;;;1.50;;
14611;SDS011;7392;52.078;11.650;2023-07-29T02:57:01;1.43;;;1.33;;
14611;SDS011;7392;52.078;11.650;2023-07-29T02:59:30;1.40;;;1.30;;
14611;SDS011;7392;52.078;11.650;2023-07-29T03:01:58;1.23;;;1.13;;
14611;SDS011;7392;52.078;11.650;2023-07-29T03:04:26;1.40;;;1.30;;
14611;SDS011;7392;52.078;11.650;2023-07-29T03:06:55;1.20;;;1.10;;
14611;SDS011;7392;52.078;11.650;2023-07-29T03:09:22;1.10;;;1.00;;
14611;SDS011;7392;52.078;11.650;2023-07-29T03:11:50;1.10;;;1.03;;
14611;SDS011;7392;52.078;11.650;2023-07-29T03:14:19;1.33;;;1.23;;
14611;SDS011;7392;52.078;11.650;2023-07-29T03:16:46;1.60;;;1.50;;
14611;SDS011;7392;52.078;11.650;2023-07-29T03:19:14;1.43;;;1.33;;
14611;SDS011;7392;52.078;11.650;2023-07-29T03:21:42;1.50;;;1.40;;
14611;SDS011;7392;52.078;11.650;2023-07-29T03:24:11;1.30;;;1.20;;
14611;SDS011;7392;52.078;11.650;2023-07-29T03:26:39;1.23;;;1.13;;
14611;SDS011;7392;52.078;11.650;2023-07-29T03:29:10;1.30;;;1.20;;
14611;SDS011;7392;52.078;11.650;2023-07-29T03:31:38;1.30;;;1.20;;
14611;SDS011;7392;52.078;11.650;2023-07-29T03:34:06;1.77;;;1.40;;
14611;SDS011;7392;52.078;11.650;2023-07-29T03:36:34;1.57;;;1.47;;
14611;SDS011;7392;52.078;11.650;2023-07-29T03:39:02;1.43;;;1.33;;
14611;SDS011;7392;52.078;11.650;2023-07-29T03:41:31;1.50;;;1.40;;
14611;SDS011;7392;52.078;11.650;2023-07-29T03:43:59;1.63;;;1.53;;
14611;SDS011;7392;52.078;11.650;2023-07-29T03:46:27;1.60;;;1.50;;
14611;SDS011;7392;52.078;11.650;2023-07-29T03:48:55;1.40;;;1.30;;
14611;SDS011;7392;52.078;11.650;2023-07-29T03:51:23;1.67;;;1.57;;
14611;SDS011;7392;52.078;11.650;2023-07-29T03:53:51;1.27;;;1.17;;
14611;SDS011;7392;52.078;11.650;2023-07-29T03:56:18;1.40;;;1.30;;
14611;SDS011;7392;52.078;11.650;2023-07-29T03:58:47;1.13;;;1.07;;
14611;SDS011;7392;52.078;11.650;2023-07-29T04:01:16;1.30;;;1.20;;
14611;SDS011;7392;52.078;11.650;2023-07-29T04:03:44;1.33;;;1.23;;
14611;SDS011;7392;52.078;11.650;2023-07-29T04:06:12;1.30;;;1.20;;
14611;SDS011;7392;52.078;11.650;2023-07-29T04:08:40;1.33;;;1.23;;
14611;SDS011;7392;52.078;11.650;2023-07-29T04:11:08;1.20;;;1.10;;
14611;SDS011;7392;52.078;11.650;2023-07-29T04:13:36;1.30;;;1.20;;
14611;SDS011;7392;52.078;11.650;2023-07-29T04:16:06;1.30;;;1.20;;
14611;SDS011;7392;52.078;11.650;2023-07-29T04:18:34;1.10;;;1.00;;
14611;SDS011;7392;52.078;11.650;2023-07-29T04:21:02;0.90;;;0.90;;
14611;SDS011;7392;52.078;11.650;2023-07-29T04:23:30;1.10;;;1.07;;
14611;SDS011;7392;52.078;11.650;2023-07-29T04:25:57;1.47;;;1.37;;
14611;SDS011;7392;52.078;11.650;2023-07-29T04:28:25;1.40;;;1.30;;
14611;SDS011;7392;52.078;11.650;2023-07-29T04:30:53;1.37;;;1.27;;
14611;SDS011;7392;52.078;11.650;2023-07-29T04:33:23;1.20;;;1.13;;
14611;SDS011;7392;52.078;11.650;2023-07-29T04:35:50;1.10;;;1.00;;
14611;SDS011;7392;52.078;11.650;2023-07-29T04:38:18;1.10;;;1.00;;
14611;SDS011;7392;52.078;11.650;2023-07-29T04:40:48;1.13;;;1.03;;
14611;SDS011;7392;52.078;11.650;2023-07-29T04:43:16;0.97;;;0.97;;
14611;SDS011;7392;52.078;11.650;2023-07-29T04:45:43;1.10;;;1.00;;
14611;SDS011;7392;52.078;11.650;2023-07-29T04:48:12;1.13;;;1.03;;
14611;SDS011;7392;52.078;11.650;2023-07-29T04:50:41;0.80;;;0.80;;
14611;SDS011;7392;52.078;11.650;2023-07-29T04:53:08;0.90;;;0.90;;
14611;SDS011;7392;52.078;11.650;2023-07-29T04:55:36;1.53;;;1.43;;
14611;SDS011;7392;52.078;11.650;2023-07-29T04:58:04;1.20;;;1.10;;
14611;SDS011;7392;52.078;11.650;2023-07-29T05:00:32;1.30;;;1.20;;
14611;SDS011;7392;52.078;11.650;2023-07-29T05:03:02;1.10;;;1.03;;
14611;SDS011;7392;52.078;11.650;2023-07-29T05:05:30;1.60;;;1.50;;
14611;SDS011;7392;52.078;11.650;2023-07-29T05:07:59;1.77;;;1.67;;
14611;SDS011;7392;52.078;11.650;2023-07-29T05:10:26;1.77;;;1.63;;
14611;SDS011;7392;52.078;11.650;2023-07-29T05:12:54;1.70;;;1.60;;
14611;SDS011;7392;52.078;11.650;2023-07-29T05:15:22;1.80;;;1.70;;
14611;SDS011;7392;52.078;11.650;2023-07-29T05:17:50;1.60;;;1.50;;
14611;SDS011;7392;52.078;11.650;2023-07-29T05:20:18;2.07;;;1.37;;
14611;SDS011;7392;52.078;11.650;2023-07-29T05:22:46;1.60;;;1.50;;
14611;SDS011;7392;52.078;11.650;2023-07-29T05:25:15;1.40;;;1.30;;
14611;SDS011;7392;52.078;11.650;2023-07-29T05:27:43;2.47;;;1.80;;
14611;SDS011;7392;52.078;11.650;2023-07-29T05:30:11;1.50;;;1.40;;
14611;SDS011;7392;52.078;11.650;2023-07-29T05:32:39;1.67;;;1.57;;
14611;SDS011;7392;52.078;11.650;2023-07-29T05:35:07;1.60;;;1.50;;
14611;SDS011;7392;52.078;11.650;2023-07-29T05:37:37;1.97;;;1.53;;
14611;SDS011;7392;52.078;11.650;2023-07-29T05:40:05;1.40;;;1.30;;
14611;SDS011;7392;52.078;11.650;2023-07-29T05:42:37;1.87;;;1.50;;
14611;SDS011;7392;52.078;11.650;2023-07-29T05:45:05;1.17;;;1.10;;
14611;SDS011;7392;52.078;11.650;2023-07-29T05:47:33;1.40;;;1.30;;
14611;SDS011;7392;52.078;11.650;2023-07-29T05:50:02;1.63;;;1.20;;
14611;SDS011;7392;52.078;11.650;2023-07-29T05:52:31;2.60;;;1.40;;
14611;SDS011;7392;52.078;11.650;2023-07-29T05:54:59;1.10;;;1.00;;
14611;SDS011;7392;52.078;11.650;2023-07-29T05:57:27;1.30;;;1.20;;
14611;SDS011;7392;52.078;11.650;2023-07-29T05:59:56;1.47;;;1.27;;
14611;SDS011;7392;52.078;11.650;2023-07-29T06:02:25;1.53;;;1.40;;
14611;SDS011;7392;52.078;11.650;2023-07-29T06:04:53;1.60;;;1.50;;
14611;SDS011;7392;52.078;11.650;2023-07-29T06:07:21;1.40;;;1.30;;
14611;SDS011;7392;52.078;11.650;2023-07-29T06:09:49;1.27;;;1.17;;
14611;SDS011;7392;52.078;11.650;2023-07-29T06:12:16;1.40;;;1.30;;
14611;SDS011;7392;52.078;11.650;2023-07-29T06:14:44;2.40;;;1.33;;
14611;SDS011;7392;52.078;11.650;2023-07-29T06:17:15;1.50;;;1.40;;
14611;SDS011;7392;52.078;11.650;2023-07-29T06:19:43;1.60;;;1.50;;
14611;SDS011;7392;52.078;11.650;2023-07-29T06:22:11;1.73;;;1.50;;
14611;SDS011;7392;52.078;11.650;2023-07-29T06:24:39;2.03;;;1.67;;
14611;SDS011;7392;52.078;11.650;2023-07-29T06:27:07;1.40;;;1.30;;
14611;SDS011;7392;52.078;11.650;2023-07-29T06:29:34;1.43;;;1.33;;
14611;SDS011;7392;52.078;11.650;2023-07-29T06:32:02;1.17;;;1.10;;
14611;SDS011;7392;52.078;11.650;2023-07-29T06:34:31;1.40;;;1.30;;
14611;SDS011;7392;52.078;11.650;2023-07-29T06:36:59;1.40;;;1.30;;
14611;SDS011;7392;52.078;11.650;2023-07-29T06:39:27;1.73;;;1.20;;
14611;SDS011;7392;52.078;11.650;2023-07-29T06:41:55;1.50;;;1.40;;
14611;SDS011;7392;52.078;11.650;2023-07-29T06:44:22;1.40;;;1.30;;
14611;SDS011;7392;52.078;11.650;2023-07-29T06:46:50;1.40;;;1.30;;
14611;SDS011;7392;52.078;11.650;2023-07-29T06:49:18;1.67;;;1.57;;
14611;SDS011;7392;52.078;11.650;2023-07-29T06:51:47;1.43;;;1.33;;
14611;SDS011;7392;52.078;11.650;2023-07-29T06:54:15;2.27;;;1.53;;
14611;SDS011;7392;52.078;11.650;2023-07-29T06:56:43;1.67;;;1.40;;
14611;SDS011;7392;52.078;11.650;2023-07-29T06:59:11;1.27;;;1.17;;
14611;SDS011;7392;52.078;11.650;2023-07-29T07:01:38;1.27;;;1.17;;
14611;SDS011;7392;52.078;11.650;2023-07-29T07:04:06;1.30;;;1.20;;
14611;SDS011;7392;52.078;11.650;2023-07-29T07:06:34;1.30;;;1.20;;
14611;SDS011;7392;52.078;11.650;2023-07-29T07:09:03;1.30;;;1.20;;
14611;SDS011;7392;52.078;11.650;2023-07-29T07:11:31;1.20;;;1.10;;
14611;SDS011;7392;52.078;11.650;2023-07-29T07:13:59;1.27;;;1.17;;
14611;SDS011;7392;52.078;11.650;2023-07-29T07:16:26;1.30;;;1.20;;
14611;SDS011;7392;52.078;11.650;2023-07-29T07:18:56;1.40;;;1.30;;
14611;SDS011;7392;52.078;11.650;2023-07-29T07:21:24;1.23;;;1.13;;
14611;SDS011;7392;52.078;11.650;2023-07-29T07:23:51;1.50;;;1.40;;
14611;SDS011;7392;52.078;11.650;2023-07-29T07:26:21;1.30;;;1.20;;
14611;SDS011;7392;52.078;11.650;2023-07-29T07:28:49;1.30;;;1.20;;
14611;SDS011;7392;52.078;11.650;2023-07-29T07:31:17;1.50;;;1.20;;
14611;SDS011;7392;52.078;11.650;2023-07-29T07:33:46;1.20;;;1.10;;
14611;SDS011;7392;52.078;11.650;2023-07-29T07:36:14;1.20;;;1.10;;
14611;SDS011;7392;52.078;11.650;2023-07-29T07:38:43;1.23;;;1.13;;
14611;SDS011;7392;52.078;11.650;2023-07-29T07:41:43;2.80;;;1.47;;
14611;SDS011;7392;52.078;11.650;2023-07-29T07:44:34;1.70;;;1.60;;
14611;SDS011;7392;52.078;11.650;2023-07-29T07:47:03;1.43;;;1.10;;
14611;SDS011;7392;52.078;11.650;2023-07-29T07:49:31;1.57;;;1.47;;
14611;SDS011;7392;52.078;11.650;2023-07-29T07:51:59;1.30;;;1.20;;
14611;SDS011;7392;52.078;11.650;2023-07-29T07:54:32;1.20;;;1.10;;
14611;SDS011;7392;52.078;11.650;2023-07-29T07:57:02;1.40;;;1.30;;
14611;SDS011;7392;52.078;11.650;2023-07-29T07:59:30;1.30;;;1.20;;
14611;SDS011;7392;52.078;11.650;2023-07-29T08:02:00;1.37;;;1.27;;
14611;SDS011;7392;52.078;11.650;2023-07-29T08:04:28;1.37;;;1.20;;
14611;SDS011;7392;52.078;11.650;2023-07-29T08:06:55;1.30;;;1.20;;
14611;SDS011;7392;52.078;11.650;2023-07-29T08:09:23;1.37;;;1.27;;
14611;SDS011;7392;52.078;11.650;2023-07-29T08:11:51;1.60;;;1.50;;
14611;SDS011;7392;52.078;11.650;2023-07-29T08:14:20;1.97;;;1.40;;
14611;SDS011;7392;52.078;11.650;2023-07-29T08:16:48;1.93;;;1.50;;
14611;SDS011;7392;52.078;11.650;2023-07-29T08:19:16;1.40;;;1.30;;
14611;SDS011;7392;52.078;11.650;2023-07-29T08:21:47;1.30;;;1.20;;
14611;SDS011;7392;52.078;11.650;2023-07-29T08:24:19;1.30;;;1.20;;
14611;SDS011;7392;52.078;11.650;2023-07-29T08:26:46;1.50;;;1.40;;
14611;SDS011;7392;52.078;11.650;2023-07-29T08:29:14;1.50;;;1.37;;
14611;SDS011;7392;52.078;11.650;2023-07-29T08:31:43;1.73;;;1.50;;
14611;SDS011;7392;52.078;11.650;2023-07-29T08:34:11;1.53;;;1.43;;
14611;SDS011;7392;52.078;11.650;2023-07-29T08:36:43;1.57;;;1.47;;
14611;SDS011;7392;52.078;11.650;2023-07-29T08:39:11;1.60;;;1.50;;
14611;SDS011;7392;52.078;11.650;2023-07-29T08:41:41;1.60;;;1.50;;
14611;SDS011;7392;52.078;11.650;2023-07-29T08:44:18;1.30;;;1.20;;
14611;SDS011;7392;52.078;11.650;2023-07-29T08:46:51;1.87;;;1.40;;
14611;SDS011;7392;52.078;11.650;2023-07-29T08:49:22;1.70;;;1.60;;
14611;SDS011;7392;52.078;11.650;2023-07-29T08:52:01;1.67;;;1.57;;
14611;SDS011;7392;52.078;11.650;2023-07-29T08:54:32;1.43;;;1.33;;
14611;SDS011;7392;52.078;11.650;2023-07-29T08:57:00;1.10;;;1.00;;
14611;SDS011;7392;52.078;11.650;2023-07-29T08:59:28;1.33;;;1.23;;
14611;SDS011;7392;52.078;11.650;2023-07-29T09:01:58;1.30;;;1.20;;
14611;SDS011;7392;52.078;11.650;2023-07-29T09:04:26;1.70;;;1.30;;
14611;SDS011;7392;52.078;11.650;2023-07-29T09:06:55;4.73;;;1.80;;
14611;SDS011;7392;52.078;11.650;2023-07-29T09:09:24;6.40;;;2.07;;
14611;SDS011;7392;52.078;11.650;2023-07-29T09:11:53;4.57;;;2.00;;
14611;SDS011;7392;52.078;11.650;2023-07-29T09:14:23;2.40;;;1.70;;
14611;SDS011;7392;52.078;11.650;2023-07-29T09:16:51;2.60;;;1.77;;
14611;SDS011;7392;52.078;11.650;2023-07-29T09:19:21;4.67;;;1.90;;
14611;SDS011;7392;52.078;11.650;2023-07-29T09:21:52;2.60;;;1.70;;
14611;SDS011;7392;52.078;11.650;2023-07-29T09:24:20;2.93;;;1.33;;
14611;SDS011;7392;52.078;11.650;2023-07-29T09:26:48;2.17;;;1.00;;
14611;SDS011;7392;52.078;11.650;2023-07-29T09:29:20;1.57;;;1.13;;
14611;SDS011;7392;52.078;11.650;2023-07-29T09:31:50;1.27;;;0.90;;
14611;SDS011;7392;52.078;11.650;2023-07-29T09:34:18;1.60;;;1.20;;
14611;SDS011;7392;52.078;11.650;2023-07-29T09:36:50;1.13;;;0.90;;
14611;SDS011;7392;52.078;11.650;2023-07-29T09:39:18;1.30;;;1.00;;
14611;SDS011;7392;52.078;11.650;2023-07-29T09:41:47;2.40;;;0.93;;
14611;SDS011;7392;52.078;11.650;2023-07-29T09:44:16;1.53;;;1.10;;
14611;SDS011;7392;52.078;11.650;2023-07-29T09:46:45;1.60;;;1.00;;
14611;SDS011;7392;52.078;11.650;2023-07-29T09:49:14;2.00;;;0.80;;
14611;SDS011;7392;52.078;11.650;2023-07-29T09:51:42;1.10;;;0.90;;
14611;SDS011;7392;52.078;11.650;2023-07-29T09:54:11;0.80;;;0.80;;
14611;SDS011;7392;52.078;11.650;2023-07-29T09:56:41;1.10;;;0.87;;
14611;SDS011;7392;52.078;11.650;2023-07-29T09:59:11;1.20;;;0.87;;
14611;SDS011;7392;52.078;11.650;2023-07-29T10:01:39;1.10;;;0.70;;
14611;SDS011;7392;52.078;11.650;2023-07-29T10:04:09;0.70;;;0.63;;
14611;SDS011;7392;52.078;11.650;2023-07-29T10:06:39;0.87;;;0.80;;
14611;SDS011;7392;52.078;11.650;2023-07-29T10:09:12;1.30;;;0.80;;
14611;SDS011;7392;52.078;11.650;2023-07-29T10:11:45;0.90;;;0.73;;
14611;SDS011;7392;52.078;11.650;2023-07-29T10:14:13;1.20;;;0.80;;
14611;SDS011;7392;52.078;11.650;2023-07-29T10:16:41;1.10;;;0.90;;
14611;SDS011;7392;52.078;11.650;2023-07-29T10:19:15;1.73;;;0.60;;
14611;SDS011;7392;52.078;11.650;2023-07-29T10:21:44;0.80;;;0.80;;
14611;SDS011;7392;52.078;11.650;2023-07-29T10:24:18;0.97;;;0.73;;
14611;SDS011;7392;52.078;11.650;2023-07-29T10:26:55;0.97;;;0.83;;
14611;SDS011;7392;52.078;11.650;2023-07-29T10:29:26;1.40;;;0.80;;
14611;SDS011;7392;52.078;11.650;2023-07-29T10:31:58;0.73;;;0.73;;
14611;SDS011;7392;52.078;11.650;2023-07-29T10:34:30;1.33;;;1.10;;
14611;SDS011;7392;52.078;11.650;2023-07-29T10:37:00;0.80;;;0.60;;
14611;SDS011;7392;52.078;11.650;2023-07-29T10:39:30;1.40;;;0.90;;
14611;SDS011;7392;52.078;11.650;2023-07-29T10:42:05;1.20;;;0.97;;
14611;SDS011;7392;52.078;11.650;2023-07-29T10:47:21;1.00;;;0.70;;
14611;SDS011;7392;52.078;11.650;2023-07-29T10:49:52;0.70;;;0.70;;
14611;SDS011;7392;52.078;11.650;2023-07-29T10:52:28;0.60;;;0.60;;
14611;SDS011;7392;52.078;11.650;2023-07-29T10:54:59;0.80;;;0.80;;
14611;SDS011;7392;52.078;11.650;2023-07-29T10:57:31;0.70;;;0.67;;
14611;SDS011;7392;52.078;11.650;2023-07-29T11:00:00;0.70;;;0.70;;
14611;SDS011;7392;52.078;11.650;2023-07-29T11:02:31;0.87;;;0.70;;
14611;SDS011;7392;52.078;11.650;2023-07-29T11:05:04;0.97;;;0.80;;
14611;SDS011;7392;52.078;11.650;2023-07-29T11:07:42;0.60;;;0.60;;
14611;SDS011;7392;52.078;11.650;2023-07-29T11:10:13;0.47;;;0.47;;
14611;SDS011;7392;52.078;11.650;2023-07-29T11:12:42;0.53;;;0.53;;
14611;SDS011;7392;52.078;11.650;2023-07-29T11:15:21;0.70;;;0.60;;
14611;SDS011;7392;52.078;11.650;2023-07-29T11:17:51;0.70;;;0.70;;
14611;SDS011;7392;52.078;11.650;2023-07-29T11:20:21;0.70;;;0.70;;
14611;SDS011;7392;52.078;11.650;2023-07-29T11:22:50;1.43;;;0.70;;
14611;SDS011;7392;52.078;11.650;2023-07-29T11:25:20;0.67;;;0.67;;
14611;SDS011;7392;52.078;11.650;2023-07-29T11:27:51;0.80;;;0.80;;
14611;SDS011;7392;52.078;11.650;2023-07-29T11:30:20;1.03;;;0.60;;
14611;SDS011;7392;52.078;11.650;2023-07-29T11:32:49;1.03;;;0.93;;
14611;SDS011;7392;52.078;11.650;2023-07-29T11:35:18;0.80;;;0.80;;
14611;SDS011;7392;52.078;11.650;2023-07-29T11:37:46;1.20;;;1.00;;
14611;SDS011;7392;52.078;11.650;2023-07-29T11:40:16;1.10;;;1.00;;
14611;SDS011;7392;52.078;11.650;2023-07-29T11:42:46;0.87;;;0.87;;
14611;SDS011;7392;52.078;11.650;2023-07-29T11:45:17;1.20;;;0.93;;
14611;SDS011;7392;52.078;11.650;2023-07-29T11:47:45;1.00;;;0.90;;
14611;SDS011;7392;52.078;11.650;2023-07-29T11:50:14;1.10;;;1.00;;
14611;SDS011;7392;52.078;11.650;2023-07-29T11:52:43;1.00;;;1.00;;
14611;SDS011;7392;52.078;11.650;2023-07-29T11:55:12;0.90;;;0.90;;
14611;SDS011;7392;52.078;11.650;2023-07-29T11:57:41;0.93;;;0.83;;
14611;SDS011;7392;52.078;11.650;2023-07-29T12:00:12;0.80;;;0.80;;
14611;SDS011;7392;52.078;11.650;2023-07-29T12:02:42;1.10;;;0.90;;
14611;SDS011;7392;52.078;11.650;2023-07-29T12:05:12;0.80;;;0.80;;
14611;SDS011;7392;52.078;11.650;2023-07-29T12:07:42;0.90;;;0.90;;
14611;SDS011;7392;52.078;11.650;2023-07-29T12:10:11;1.27;;;1.17;;
14611;SDS011;7392;52.078;11.650;2023-07-29T12:12:43;1.50;;;1.10;;
14611;SDS011;7392;52.078;11.650;2023-07-29T12:15:13;1.37;;;1.20;;
14611;SDS011;7392;52.078;11.650;2023-07-29T12:17:52;1.20;;;1.10;;
14611;SDS011;7392;52.078;11.650;2023-07-29T12:20:23;1.00;;;1.00;;
14611;SDS011;7392;52.078;11.650;2023-07-29T12:22:51;1.20;;;1.10;;
14611;SDS011;7392;52.078;11.650;2023-07-29T12:25:20;1.17;;;1.03;;
14611;SDS011;7392;52.078;11.650;2023-07-29T12:27:48;1.20;;;1.00;;
14611;SDS011;7392;52.078;11.650;2023-07-29T12:30:21;0.80;;;0.80;;
14611;SDS011;7392;52.078;11.650;2023-07-29T12:32:49;1.00;;;1.00;;
14611;SDS011;7392;52.078;11.650;2023-07-29T12:35:17;0.90;;;0.90;;
14611;SDS011;7392;52.078;11.650;2023-07-29T12:37:45;1.27;;;1.10;;
14611;SDS011;7392;52.078;11.650;2023-07-29T12:40:21;1.30;;;1.20;;
14611;SDS011;7392;52.078;11.650;2023-07-29T12:42:50;0.90;;;0.90;;
14611;SDS011;7392;52.078;11.650;2023-07-29T12:45:18;1.05;;;1.00;;
14611;SDS011;7392;52.078;11.650;2023-07-29T12:47:49;1.35;;;1.25;;
14611;SDS011;7392;52.078;11.650;2023-07-29T12:50:18;1.10;;;1.10;;
14611;SDS011;7392;52.078;11.650;2023-07-29T12:52:45;0.90;;;0.90;;
14611;SDS011;7392;52.078;11.650;2023-07-29T12:55:15;1.10;;;1.00;;
14611;SDS011;7392;52.078;11.650;2023-07-29T12:57:47;0.80;;;0.80;;
14611;SDS011;7392;52.078;11.650;2023-07-29T13:00:15;1.05;;;0.90;;
14611;SDS011;7392;52.078;11.650;2023-07-29T13:02:48;1.25;;;1.10;;
14611;SDS011;7392;52.078;11.650;2023-07-29T13:05:16;2.70;;;1.30;;
14611;SDS011;7392;52.078;11.650;2023-07-29T13:07:45;2.85;;;1.42;;
14611;SDS011;7392;52.078;11.650;2023-07-29T13:10:13;2.55;;;1.40;;
14611;SDS011;7392;52.078;11.650;2023-07-29T13:12:41;1.30;;;1.20;;
14611;SDS011;7392;52.078;11.650;2023-07-29T13:15:09;1.30;;;1.20;;
14611;SDS011;7392;52.078;11.650;2023-07-29T13:17:37;1.35;;;1.25;;
14611;SDS011;7392;52.078;11.650;2023-07-29T13:20:08;1.67;;;1.40;;
14611;SDS011;7392;52.078;11.650;2023-07-29T13:22:37;2.10;;;1.35;;
14611;SDS011;7392;52.078;11.650;2023-07-29T13:25:06;1.43;;;1.33;;
14611;SDS011;7392;52.078;11.650;2023-07-29T13:27:37;2.75;;;1.42;;
14611;SDS011;7392;52.078;11.650;2023-07-29T13:30:05;1.80;;;1.30;;
14611;SDS011;7392;52.078;11.650;2023-07-29T13:32:34;1.30;;;1.20;;
14611;SDS011;7392;52.078;11.650;2023-07-29T13:35:02;1.60;;;1.50;;
14611;SDS011;7392;52.078;11.650;2023-07-29T13:37:31;2.00;;;1.70;;
14611;SDS011;7392;52.078;11.650;2023-07-29T13:40:00;1.70;;;1.60;;
14611;SDS011;7392;52.078;11.650;2023-07-29T13:42:28;1.77;;;1.65;;
14611;SDS011;7392;52.078;11.650;2023-07-29T13:44:58;1.67;;;1.58;;
14611;SDS011;7392;52.078;11.650;2023-07-29T13:47:26;1.63;;;1.52;;
14611;SDS011;7392;52.078;11.650;2023-07-29T13:49:54;1.90;;;1.70;;
14611;SDS011;7392;52.078;11.650;2023-07-29T13:52:21;1.70;;;1.60;;
14611;SDS011;7392;52.078;11.650;2023-07-29T13:54:51;1.88;;;1.70;;
14611;SDS011;7392;52.078;11.650;2023-07-29T13:57:19;1.70;;;1.60;;
14611;SDS011;7392;52.078;11.650;2023-07-29T13:59:46;1.70;;;1.60;;
14611;SDS011;7392;52.078;11.650;2023-07-29T14:02:14;1.52;;;1.42;;
14611;SDS011;7392;52.078;11.650;2023-07-29T14:04:42;2.05;;;1.70;;
14611;SDS011;7392;52.078;11.650;2023-07-29T14:07:10;1.90;;;1.80;;
14611;SDS011;7392;52.078;11.650;2023-07-29T14:09:38;2.65;;;1.83;;
14611;SDS011;7392;52.078;11.650;2023-07-29T14:12:11;1.92;;;1.77;;
14611;SDS011;7392;52.078;11.650;2023-07-29T14:14:41;1.98;;;1.88;;
14611;SDS011;7392;52.078;11.650;2023-07-29T14:17:11;1.90;;;1.67;;
14611;SDS011;7392;52.078;11.650;2023-07-29T14:19:38;4.15;;;2.22;;
14611;SDS011;7392;52.078;11.650;2023-07-29T14:22:06;1.85;;;1.75;;
14611;SDS011;7392;52.078;11.650;2023-07-29T14:24:34;3.40;;;2.53;;
14611;SDS011;7392;52.078;11.650;2023-07-29T14:27:02;2.20;;;2.00;;
14611;SDS011;7392;52.078;11.650;2023-07-29T14:29:32;2.38;;;2.17;;
14611;SDS011;7392;52.078;11.650;2023-07-29T14:32:00;2.55;;;2.20;;
14611;SDS011;7392;52.078;11.650;2023-07-29T14:34:28;2.10;;;1.90;;
14611;SDS011;7392;52.078;11.650;2023-07-29T14:36:56;2.70;;;2.20;;
14611;SDS011;7392;52.078;11.650;2023-07-29T14:39:24;2.35;;;2.17;;
14611;SDS011;7392;52.078;11.650;2023-07-29T14:41:52;2.05;;;1.85;;
14611;SDS011;7392;52.078;11.650;2023-07-29T14:44:19;2.35;;;2.15;;
14611;SDS011;7392;52.078;11.650;2023-07-29T14:46:49;2.60;;;2.35;;
14611;SDS011;7392;52.078;11.650;2023-07-29T14:49:17;2.83;;;2.15;;
14611;SDS011;7392;52.078;11.650;2023-07-29T14:51:45;2.40;;;2.20;;
14611;SDS011;7392;52.078;11.650;2023-07-29T14:54:13;2.47;;;2.00;;
14611;SDS011;7392;52.078;11.650;2023-07-29T14:56:41;2.20;;;2.00;;
14611;SDS011;7392;52.078;11.650;2023-07-29T14:59:09;1.88;;;1.77;;
14611;SDS011;7392;52.078;11.650;2023-07-29T15:01:37;2.33;;;1.83;;